createdAt,value
2023-02-23T00:01:54.120Z,9.30
2023-02-23T00:04:21.208Z,9.40
2023-02-23T00:06:48.026Z,9.30
2023-02-23T00:09:22.842Z,9.30
2023-02-23T00:11:55.281Z,9.30
2023-02-23T00:14:28.079Z,9.30
2023-02-23T00:16:56.255Z,9.20
2023-02-23T00:19:24.737Z,9.20
2023-02-23T00:21:52.518Z,9.20
2023-02-23T00:24:20.445Z,9.20
2023-02-23T00:26:48.244Z,9.10
2023-02-23T00:29:18.467Z,9.10
2023-02-23T00:31:45.807Z,9.10
2023-02-23T00:34:15.246Z,9.10
2023-02-23T00:36:42.911Z,9.10
2023-02-23T00:39:21.521Z,9.10
2023-02-23T00:41:49.584Z,9.10
2023-02-23T00:44:17.114Z,9.00
2023-02-23T00:46:45.452Z,9.00
2023-02-23T00:49:13.474Z,9.00
2023-02-23T00:51:41.605Z,9.00
2023-02-23T00:54:10.692Z,9.10
2023-02-23T00:56:38.764Z,9.00
2023-02-23T00:59:05.550Z,9.00
2023-02-23T01:01:32.715Z,8.90
2023-02-23T01:04:01.057Z,9.00
2023-02-23T01:06:27.935Z,9.00
2023-02-23T01:08:57.696Z,9.00
2023-02-23T01:11:31.058Z,8.90
2023-02-23T01:13:59.875Z,9.00
2023-02-23T01:16:33.559Z,9.00
2023-02-23T01:19:03.431Z,8.90
2023-02-23T01:21:36.460Z,8.90
2023-02-23T01:24:03.989Z,8.90
2023-02-23T01:26:37.411Z,8.90
2023-02-23T01:29:22.746Z,8.80
2023-02-23T01:31:51.327Z,8.80
2023-02-23T01:34:19.340Z,8.80
2023-02-23T01:36:46.246Z,8.80
2023-02-23T01:39:19.095Z,8.80
2023-02-23T01:41:46.036Z,8.80
2023-02-23T01:44:14.953Z,8.70
2023-02-23T01:46:45.301Z,8.70
2023-02-23T01:49:16.115Z,8.60
2023-02-23T01:51:55.914Z,8.60
2023-02-23T01:54:28.982Z,8.50
2023-02-23T01:57:00.041Z,8.60
2023-02-23T01:59:36.091Z,8.50
2023-02-23T02:02:05.326Z,8.50
2023-02-23T02:04:44.505Z,8.40
2023-02-23T02:07:17.982Z,8.40
2023-02-23T02:10:09.630Z,8.40
2023-02-23T02:12:41.314Z,8.40
2023-02-23T02:15:16.943Z,8.30
2023-02-23T02:18:03.336Z,8.30
2023-02-23T02:20:52.422Z,8.30
2023-02-23T02:23:43.921Z,8.30
2023-02-23T02:26:35.608Z,8.30
2023-02-23T02:29:26.279Z,8.30
2023-02-23T02:32:02.646Z,8.30
2023-02-23T02:35:09.100Z,8.30
2023-02-23T02:37:48.357Z,8.30
2023-02-23T02:40:27.594Z,8.20
2023-02-23T02:42:59.892Z,8.20
2023-02-23T02:45:37.405Z,8.20
2023-02-23T02:48:16.510Z,8.20
2023-02-23T02:50:51.256Z,8.20
2023-02-23T02:53:31.020Z,8.10
2023-02-23T02:56:00.477Z,8.10
2023-02-23T02:58:29.206Z,8.10
2023-02-23T03:01:14.486Z,8.10
2023-02-23T03:04:02.898Z,8.10
2023-02-23T03:07:08.728Z,8.00
2023-02-23T03:10:08.979Z,8.00
2023-02-23T03:13:03.514Z,8.00
2023-02-23T03:16:02.052Z,8.00
2023-02-23T03:18:56.790Z,8.00
2023-02-23T03:21:52.275Z,7.90
2023-02-23T03:25:09.904Z,7.90
2023-02-23T03:28:19.954Z,7.90
2023-02-23T03:31:13.573Z,7.90
2023-02-23T03:34:21.343Z,7.80
2023-02-23T03:37:11.828Z,7.80
2023-02-23T03:40:06.288Z,7.80
2023-02-23T03:42:54.945Z,7.80
2023-02-23T03:45:43.307Z,7.80
2023-02-23T03:48:31.998Z,7.70
2023-02-23T03:51:23.526Z,7.80
2023-02-23T03:54:17.939Z,7.80
2023-02-23T03:57:07.350Z,7.70
2023-02-23T04:00:01.500Z,7.70
2023-02-23T04:02:49.519Z,7.70
2023-02-23T04:05:37.474Z,7.70
2023-02-23T04:08:27.692Z,7.70
2023-02-23T04:11:26.461Z,7.70
2023-02-23T04:14:00.114Z,7.70
2023-02-23T04:16:29.909Z,7.70
2023-02-23T04:18:56.765Z,7.70
2023-02-23T04:21:23.621Z,7.70
2023-02-23T04:23:50.403Z,7.70
2023-02-23T04:26:17.282Z,7.70
2023-02-23T04:28:44.080Z,7.70
2023-02-23T04:31:10.979Z,7.70
2023-02-23T04:33:37.778Z,7.70
2023-02-23T04:36:04.968Z,7.70
2023-02-23T04:38:31.801Z,7.60
2023-02-23T04:40:58.639Z,7.60
2023-02-23T04:43:25.382Z,7.60
2023-02-23T04:45:52.226Z,7.60
2023-02-23T04:48:19.086Z,7.60
2023-02-23T04:50:45.921Z,7.60
2023-02-23T04:53:12.732Z,7.60
2023-02-23T04:55:39.544Z,7.60
2023-02-23T04:58:06.381Z,7.50
2023-02-23T05:00:34.045Z,7.50
2023-02-23T05:03:01.014Z,7.50
2023-02-23T05:05:27.931Z,7.50
2023-02-23T05:07:55.038Z,7.50
2023-02-23T05:10:22.066Z,7.50
2023-02-23T05:12:48.978Z,7.50
2023-02-23T05:15:16.012Z,7.50
2023-02-23T05:17:42.844Z,7.40
2023-02-23T05:20:12.447Z,7.40
2023-02-23T05:22:39.308Z,7.40
2023-02-23T05:25:08.704Z,7.40
2023-02-23T05:27:35.872Z,7.40
2023-02-23T05:30:02.967Z,7.30
2023-02-23T05:32:29.813Z,7.30
2023-02-23T05:34:56.797Z,7.30
2023-02-23T05:37:23.792Z,7.30
2023-02-23T05:39:50.714Z,7.30
2023-02-23T05:42:17.715Z,7.30
2023-02-23T05:44:44.978Z,7.20
2023-02-23T05:47:11.828Z,7.20
2023-02-23T05:49:38.903Z,7.30
2023-02-23T05:52:06.103Z,7.30
2023-02-23T05:54:32.985Z,7.30
2023-02-23T05:57:01.739Z,7.30
2023-02-23T05:59:29.226Z,7.40
2023-02-23T06:01:56.098Z,7.30
2023-02-23T06:04:23.846Z,7.30
2023-02-23T06:06:50.676Z,7.40
2023-02-23T06:09:17.669Z,7.40
2023-02-23T06:11:44.600Z,7.40
2023-02-23T06:14:11.705Z,7.40
2023-02-23T06:16:39.339Z,7.40
2023-02-23T06:19:06.295Z,7.40
2023-02-23T06:21:33.561Z,7.40
2023-02-23T06:24:00.980Z,7.50
2023-02-23T06:26:28.232Z,7.40
2023-02-23T06:28:55.954Z,7.40
2023-02-23T06:31:23.069Z,7.30
2023-02-23T06:33:50.855Z,7.40
2023-02-23T06:36:18.500Z,7.30
2023-02-23T06:38:45.675Z,7.30
2023-02-23T06:41:13.136Z,7.30
2023-02-23T06:43:40.029Z,7.30
2023-02-23T06:46:07.396Z,7.30
2023-02-23T06:48:35.445Z,7.30
2023-02-23T06:51:02.406Z,7.30
2023-02-23T06:53:30.748Z,7.30
2023-02-23T06:55:57.745Z,7.30
2023-02-23T06:58:24.732Z,7.30
2023-02-23T07:00:51.565Z,7.30
2023-02-23T07:03:19.239Z,7.30
2023-02-23T07:05:46.104Z,7.30
2023-02-23T07:08:13.019Z,7.20
2023-02-23T07:10:39.856Z,7.30
2023-02-23T07:13:06.810Z,7.30
2023-02-23T07:15:35.846Z,7.30
2023-02-23T07:18:03.116Z,7.30
2023-02-23T07:20:31.333Z,7.30
2023-02-23T07:22:58.192Z,7.30
2023-02-23T07:25:24.941Z,7.40
2023-02-23T07:27:51.901Z,7.40
2023-02-23T07:30:19.374Z,7.40
2023-02-23T07:32:46.241Z,7.40
2023-02-23T07:35:13.217Z,7.40
2023-02-23T07:37:40.047Z,7.50
2023-02-23T07:40:07.505Z,7.50
2023-02-23T07:42:34.346Z,7.50
2023-02-23T07:45:01.367Z,7.50
2023-02-23T07:47:31.179Z,7.50
2023-02-23T07:49:59.684Z,7.60
2023-02-23T07:52:26.642Z,7.60
2023-02-23T07:54:53.955Z,7.60
2023-02-23T07:57:23.372Z,7.70
2023-02-23T07:59:52.029Z,7.70
2023-02-23T08:02:18.870Z,7.70
2023-02-23T08:04:45.724Z,7.70
2023-02-23T08:07:12.530Z,7.70
2023-02-23T08:09:39.364Z,7.80
2023-02-23T08:12:06.486Z,7.80
2023-02-23T08:14:33.248Z,7.80
2023-02-23T08:17:01.507Z,7.80
2023-02-23T08:19:28.686Z,7.90
2023-02-23T08:21:56.852Z,7.90
2023-02-23T08:24:24.926Z,7.90
2023-02-23T08:26:51.791Z,8.00
2023-02-23T08:29:20.697Z,8.00
2023-02-23T08:31:47.615Z,8.00
2023-02-23T08:34:14.841Z,8.00
2023-02-23T08:36:42.526Z,8.10
2023-02-23T08:39:12.103Z,8.10
2023-02-23T08:41:39.905Z,8.10
2023-02-23T08:44:06.986Z,8.10
2023-02-23T08:46:34.293Z,8.10
2023-02-23T08:49:01.266Z,8.10
2023-02-23T08:51:28.094Z,8.10
2023-02-23T08:53:57.096Z,8.20
2023-02-23T08:56:25.302Z,8.20
2023-02-23T08:58:53.022Z,8.30
2023-02-23T09:01:22.138Z,8.30
2023-02-23T09:03:50.363Z,8.40
2023-02-23T09:06:20.868Z,8.30
2023-02-23T09:08:47.805Z,8.40
2023-02-23T09:11:14.762Z,8.40
2023-02-23T09:13:41.584Z,8.50
2023-02-23T09:16:08.777Z,8.50
2023-02-23T09:18:36.192Z,8.60
2023-02-23T09:21:08.474Z,8.60
2023-02-23T09:23:35.997Z,8.70
2023-02-23T09:26:04.963Z,8.70
2023-02-23T09:28:33.842Z,8.80
2023-02-23T09:31:08.834Z,8.80
2023-02-23T09:33:36.426Z,8.90
2023-02-23T09:36:08.620Z,8.90
2023-02-23T09:38:35.463Z,8.90
2023-02-23T09:41:02.263Z,8.90
2023-02-23T09:43:47.916Z,9.00
2023-02-23T09:46:24.202Z,9.00
2023-02-23T09:48:52.845Z,9.10
2023-02-23T09:51:22.364Z,9.10
2023-02-23T09:53:57.717Z,9.10
2023-02-23T09:56:44.847Z,9.10
2023-02-23T09:59:15.753Z,9.10
2023-02-23T10:01:48.669Z,9.20
2023-02-23T10:04:42.799Z,9.10
2023-02-23T10:07:29.945Z,9.10
2023-02-23T10:10:07.413Z,9.20
2023-02-23T10:12:49.352Z,9.10
2023-02-23T10:15:40.015Z,9.20
2023-02-23T10:18:19.056Z,9.20
2023-02-23T10:20:45.825Z,9.20
2023-02-23T10:23:22.710Z,9.20
2023-02-23T10:25:52.176Z,9.20
2023-02-23T10:28:21.831Z,9.20
2023-02-23T10:30:50.887Z,9.20
2023-02-23T10:33:41.284Z,9.20
2023-02-23T10:36:17.086Z,9.30
2023-02-23T10:38:44.377Z,9.30
2023-02-23T10:41:14.710Z,9.20
2023-02-23T10:43:41.951Z,9.30
2023-02-23T10:46:19.864Z,9.20
2023-02-23T10:48:49.477Z,9.30
2023-02-23T10:51:26.282Z,9.20
2023-02-23T10:53:53.716Z,9.30
2023-02-23T10:56:22.029Z,9.30
2023-02-23T10:58:55.131Z,9.30
2023-02-23T11:02:00.522Z,9.30
2023-02-23T11:04:34.869Z,9.30
2023-02-23T11:07:18.371Z,9.30
2023-02-23T11:09:47.863Z,9.40
2023-02-23T11:12:21.905Z,9.40
2023-02-23T11:14:51.311Z,9.30
2023-02-23T11:17:37.587Z,9.30
2023-02-23T11:20:49.557Z,9.30
2023-02-23T11:23:34.018Z,9.30
2023-02-23T11:26:03.884Z,9.20
2023-02-23T11:28:32.187Z,9.20
2023-02-23T11:31:04.678Z,9.20
2023-02-23T11:33:35.995Z,9.20
2023-02-23T11:36:26.583Z,9.20
2023-02-23T11:39:09.930Z,9.20
2023-02-23T11:41:37.338Z,9.10
2023-02-23T11:44:06.280Z,9.10
2023-02-23T11:46:45.668Z,9.20
2023-02-23T11:49:26.912Z,9.10
2023-02-23T11:51:54.783Z,9.10
2023-02-23T11:54:30.328Z,9.10
2023-02-23T11:56:58.146Z,9.10
2023-02-23T11:59:34.263Z,9.00
2023-02-23T12:02:28.753Z,9.10
2023-02-23T12:05:15.680Z,9.10
2023-02-23T12:08:04.199Z,9.10
2023-02-23T12:10:34.793Z,9.10
2023-02-23T12:13:07.837Z,9.10
2023-02-23T12:15:42.854Z,9.10
2023-02-23T12:18:38.375Z,9.00
2023-02-23T12:21:19.743Z,9.00
2023-02-23T12:23:50.795Z,9.00
2023-02-23T12:26:22.644Z,9.00
2023-02-23T12:29:08.758Z,9.00
2023-02-23T12:32:02.866Z,9.00
2023-02-23T12:34:42.750Z,9.00
2023-02-23T12:37:15.559Z,9.00
2023-02-23T12:39:48.235Z,9.00
2023-02-23T12:42:27.288Z,9.00
2023-02-23T12:45:02.990Z,9.00
2023-02-23T12:47:39.442Z,9.00
2023-02-23T12:50:13.555Z,9.00
2023-02-23T12:52:53.670Z,9.00
2023-02-23T12:55:47.156Z,8.90
2023-02-23T12:58:34.161Z,8.90
2023-02-23T13:01:06.168Z,9.00
2023-02-23T13:03:56.963Z,9.00
2023-02-23T13:06:48.190Z,9.10
2023-02-23T13:09:29.527Z,9.00
2023-02-23T13:11:56.665Z,9.00
2023-02-23T13:14:29.714Z,9.00
2023-02-23T13:17:05.284Z,9.00
2023-02-23T13:19:46.868Z,9.10
2023-02-23T13:22:38.017Z,9.10
2023-02-23T13:25:24.828Z,9.00
2023-02-23T13:27:56.633Z,9.00
2023-02-23T13:30:23.439Z,9.10
2023-02-23T13:32:50.463Z,9.10
2023-02-23T13:35:24.020Z,9.10
2023-02-23T13:38:04.325Z,9.10
2023-02-23T13:40:58.748Z,9.10
2023-02-23T13:43:37.117Z,9.10
2023-02-23T13:46:34.165Z,9.10
2023-02-23T13:49:25.410Z,9.10
2023-02-23T13:51:57.305Z,9.00
2023-02-23T13:54:26.136Z,9.10
2023-02-23T13:56:59.190Z,9.10
2023-02-23T13:59:29.831Z,9.10
2023-02-23T14:01:58.525Z,9.10
2023-02-23T14:04:35.039Z,9.20
2023-02-23T14:07:11.155Z,9.20
2023-02-23T14:09:44.552Z,9.20
2023-02-23T14:12:11.978Z,9.20
2023-02-23T14:14:44.920Z,9.20
2023-02-23T14:17:14.730Z,9.20
2023-02-23T14:20:06.965Z,9.30
2023-02-23T14:22:34.957Z,9.30
2023-02-23T14:25:33.517Z,9.40
2023-02-23T14:28:32.569Z,9.40
2023-02-23T14:31:14.436Z,9.40
2023-02-23T14:33:48.481Z,9.40
2023-02-23T14:36:24.365Z,9.40
2023-02-23T14:39:11.588Z,9.40
2023-02-23T14:41:50.728Z,9.30
2023-02-23T14:44:31.506Z,9.30
2023-02-23T14:47:03.220Z,9.30
2023-02-23T14:49:45.601Z,9.30
2023-02-23T14:52:26.286Z,9.30
2023-02-23T14:55:17.100Z,9.20
2023-02-23T14:57:44.302Z,9.20
2023-02-23T15:00:24.974Z,9.20
2023-02-23T15:02:59.052Z,9.20
2023-02-23T15:05:29.133Z,9.10
2023-02-23T15:07:59.926Z,9.10
2023-02-23T15:10:35.282Z,9.10
2023-02-23T15:13:21.360Z,9.10
2023-02-23T15:15:49.771Z,9.00
2023-02-23T15:18:31.968Z,9.00
2023-02-23T15:20:59.201Z,9.00
2023-02-23T15:23:26.195Z,8.90
2023-02-23T15:25:53.170Z,8.90
2023-02-23T15:28:28.186Z,8.90
2023-02-23T15:31:00.176Z,8.80
2023-02-23T15:33:30.507Z,8.80
2023-02-23T15:36:06.273Z,8.80
2023-02-23T15:38:43.749Z,8.80
2023-02-23T15:41:36.994Z,8.80
2023-02-23T15:44:19.880Z,8.70
2023-02-23T15:46:54.575Z,8.70
2023-02-23T15:49:24.534Z,8.70
2023-02-23T15:51:59.344Z,8.60
2023-02-23T15:54:44.672Z,8.60
2023-02-23T15:57:27.226Z,8.60
2023-02-23T15:59:58.802Z,8.60
2023-02-23T16:02:25.981Z,8.60
2023-02-23T16:04:53.767Z,8.60
2023-02-23T16:07:26.879Z,8.60
2023-02-23T16:09:55.170Z,8.50
2023-02-23T16:12:29.085Z,8.40
2023-02-23T16:15:00.380Z,8.40
2023-02-23T16:17:50.357Z,8.40
2023-02-23T16:20:34.756Z,8.40
2023-02-23T16:23:03.484Z,8.40
2023-02-23T16:25:32.857Z,8.30
2023-02-23T16:28:09.680Z,8.30
2023-02-23T16:30:43.273Z,8.30
2023-02-23T16:33:21.609Z,8.30
2023-02-23T16:35:51.730Z,8.30
2023-02-23T16:38:38.635Z,8.30
2023-02-23T16:41:10.240Z,8.30
2023-02-23T16:43:37.332Z,8.20
2023-02-23T16:46:04.248Z,8.20
2023-02-23T16:48:31.549Z,8.20
2023-02-23T16:50:58.399Z,8.20
2023-02-23T16:53:25.308Z,8.10
2023-02-23T16:56:01.018Z,8.10
2023-02-23T16:58:30.680Z,8.10
2023-02-23T17:00:57.542Z,8.10
2023-02-23T17:03:30.426Z,8.10
2023-02-23T17:05:57.455Z,8.10
2023-02-23T17:08:24.618Z,8.10
2023-02-23T17:10:54.117Z,8.10
2023-02-23T17:13:26.765Z,8.00
2023-02-23T17:15:56.416Z,8.00
2023-02-23T17:20:59.534Z,8.10
2023-02-23T17:23:38.114Z,8.00
2023-02-23T17:26:06.911Z,8.00
2023-02-23T17:28:33.757Z,8.00
2023-02-23T17:31:04.349Z,8.00
2023-02-23T17:33:36.390Z,8.00
2023-02-23T17:36:07.160Z,8.00
2023-02-23T17:38:34.608Z,7.90
2023-02-23T17:41:06.903Z,7.90
2023-02-23T17:43:35.720Z,7.90
2023-02-23T17:46:02.528Z,7.90
2023-02-23T17:48:30.457Z,7.90
2023-02-23T17:51:02.750Z,7.80
2023-02-23T17:53:30.331Z,7.90
2023-02-23T17:55:57.959Z,7.80
2023-02-23T17:58:25.128Z,7.90
2023-02-23T18:01:00.980Z,7.70
2023-02-23T18:03:31.910Z,7.80
2023-02-23T18:06:06.809Z,7.80
2023-02-23T18:08:34.422Z,7.80
2023-02-23T18:11:01.483Z,7.80
2023-02-23T18:13:30.227Z,7.80
2023-02-23T18:16:08.107Z,7.80
2023-02-23T18:18:41.206Z,7.80
2023-02-23T18:21:17.255Z,7.80
2023-02-23T18:23:44.613Z,7.80
2023-02-23T18:26:17.380Z,7.80
2023-02-23T18:28:46.056Z,7.80
2023-02-23T18:31:19.588Z,7.80
2023-02-23T18:33:52.855Z,7.80
2023-02-23T18:36:28.864Z,7.80
2023-02-23T18:38:57.710Z,7.80
2023-02-23T18:41:30.564Z,7.80
2023-02-23T18:43:59.081Z,7.70
2023-02-23T18:46:26.568Z,7.70
2023-02-23T18:48:54.599Z,7.70
2023-02-23T18:51:23.018Z,7.70
2023-02-23T18:53:51.635Z,7.70
2023-02-23T18:56:23.300Z,7.70
2023-02-23T18:58:51.686Z,7.70
2023-02-23T19:01:22.730Z,7.60
2023-02-23T19:03:54.302Z,7.70
2023-02-23T19:06:23.421Z,7.60
2023-02-23T19:08:56.297Z,7.60
2023-02-23T19:11:31.478Z,7.60
2023-02-23T19:14:02.037Z,7.60
2023-02-23T19:16:31.237Z,7.60
2023-02-23T19:19:02.609Z,7.70
2023-02-23T19:21:34.705Z,7.60
2023-02-23T19:24:02.805Z,7.60
2023-02-23T19:26:42.037Z,7.60
2023-02-23T19:29:09.641Z,7.60
2023-02-23T19:31:37.557Z,7.60
2023-02-23T19:34:04.960Z,7.60
2023-02-23T19:36:45.882Z,7.60
2023-02-23T19:39:15.779Z,7.60
2023-02-23T19:42:00.433Z,7.60
2023-02-23T19:44:49.596Z,7.50
2023-02-23T19:47:24.552Z,7.50
2023-02-23T19:49:56.587Z,7.50
2023-02-23T19:52:24.725Z,7.50
2023-02-23T19:54:54.882Z,7.50
2023-02-23T19:57:24.346Z,7.40
2023-02-23T19:59:53.138Z,7.40
2023-02-23T20:02:22.828Z,7.40
2023-02-23T20:04:52.556Z,7.40
2023-02-23T20:07:19.601Z,7.30
2023-02-23T20:09:46.484Z,7.30
2023-02-23T20:12:14.501Z,7.20
2023-02-23T20:14:41.753Z,7.20
2023-02-23T20:17:09.321Z,7.20
2023-02-23T20:19:36.329Z,7.20
2023-02-23T20:22:03.272Z,7.10
2023-02-23T20:24:30.179Z,7.20
2023-02-23T20:26:59.387Z,7.10
2023-02-23T20:29:28.048Z,7.10
2023-02-23T20:31:55.280Z,7.10
2023-02-23T20:34:24.593Z,7.00
2023-02-23T20:36:52.437Z,7.00
2023-02-23T20:39:22.160Z,7.00
2023-02-23T20:41:53.669Z,6.90
2023-02-23T20:44:30.200Z,6.90
2023-02-23T20:47:04.008Z,6.80
2023-02-23T20:49:31.347Z,6.70
2023-02-23T20:51:58.193Z,6.60
2023-02-23T20:54:25.437Z,6.60
2023-02-23T20:57:07.799Z,6.60
2023-02-23T20:59:39.096Z,6.60
2023-02-23T21:02:06.957Z,6.60
2023-02-23T21:04:35.966Z,6.50
2023-02-23T21:07:06.906Z,6.50
2023-02-23T21:09:34.194Z,6.60
2023-02-23T21:12:01.205Z,6.50
2023-02-23T21:14:28.127Z,6.50
2023-02-23T21:16:58.097Z,6.50
2023-02-23T21:19:24.915Z,6.50
2023-02-23T21:21:58.265Z,6.50
2023-02-23T21:24:37.839Z,6.50
2023-02-23T21:27:15.053Z,6.40
2023-02-23T21:29:43.629Z,6.50
2023-02-23T21:32:17.295Z,6.50
2023-02-23T21:34:47.674Z,6.50
2023-02-23T21:37:24.358Z,6.50
2023-02-23T21:40:21.164Z,6.50
2023-02-23T21:45:33.934Z,6.50
2023-02-23T21:48:14.702Z,6.50
2023-02-23T21:50:51.382Z,6.50
2023-02-23T21:53:21.276Z,6.50
2023-02-23T21:55:54.110Z,6.60
2023-02-23T21:58:24.614Z,6.40
2023-02-23T22:00:59.126Z,6.40
2023-02-23T22:03:58.314Z,6.40
2023-02-23T22:06:29.361Z,6.40
2023-02-23T22:09:02.041Z,6.40
2023-02-23T22:11:37.384Z,6.40
2023-02-23T22:14:09.133Z,6.40
2023-02-23T22:16:44.825Z,6.40
2023-02-23T22:19:12.987Z,6.40
2023-02-23T22:21:44.630Z,6.30
2023-02-23T22:24:13.877Z,6.30
2023-02-23T22:26:53.915Z,6.30
2023-02-23T22:29:25.925Z,6.30
2023-02-23T22:31:53.051Z,6.30
2023-02-23T22:34:20.449Z,6.30
2023-02-23T22:36:48.559Z,6.40
2023-02-23T22:39:16.409Z,6.30
2023-02-23T22:41:46.380Z,6.30
2023-02-23T22:44:17.179Z,6.30
2023-02-23T22:46:50.859Z,6.30
2023-02-23T22:49:20.407Z,6.20
2023-02-23T22:51:47.710Z,6.30
2023-02-23T22:54:14.875Z,6.30
2023-02-23T22:56:42.318Z,6.30
2023-02-23T22:59:10.928Z,6.30
2023-02-23T23:01:39.065Z,6.30
2023-02-23T23:04:10.445Z,6.40
2023-02-23T23:06:40.203Z,6.40
2023-02-23T23:09:08.618Z,6.40
2023-02-23T23:11:36.660Z,6.30
2023-02-23T23:14:07.301Z,6.30
2023-02-23T23:16:35.824Z,6.30
2023-02-23T23:19:12.064Z,6.30
2023-02-23T23:21:41.686Z,6.30
2023-02-23T23:24:13.284Z,6.30
2023-02-23T23:26:41.070Z,6.20
2023-02-23T23:29:11.341Z,6.20
2023-02-23T23:31:40.623Z,6.30
2023-02-23T23:34:10.633Z,6.20
2023-02-23T23:36:43.121Z,6.20
2023-02-23T23:39:15.949Z,6.20
2023-02-23T23:41:47.887Z,6.10
2023-02-23T23:44:21.342Z,6.20
2023-02-23T23:46:50.853Z,6.30
2023-02-23T23:49:20.224Z,6.30
2023-02-23T23:51:50.113Z,6.30
2023-02-23T23:54:23.210Z,6.20
2023-02-23T23:56:51.063Z,6.20
2023-02-23T23:59:21.221Z,6.20
